createdAt,value
2019-01-26T00:01:20.116Z,-2.50
2019-01-26T00:03:46.888Z,-2.50
2019-01-26T00:06:13.652Z,-2.50
2019-01-26T00:08:40.549Z,-2.50
2019-01-26T00:11:07.119Z,-2.50
2019-01-26T00:13:33.638Z,-2.40
2019-01-26T00:16:01.072Z,-2.40
2019-01-26T00:18:27.720Z,-2.40
2019-01-26T00:20:54.340Z,-2.40
2019-01-26T00:23:22.007Z,-2.20
2019-01-26T00:25:49.378Z,-2.40
2019-01-26T00:28:16.113Z,-2.40
2019-01-26T00:30:42.882Z,-2.30
2019-01-26T00:33:10.476Z,-2.30
2019-01-26T00:35:37.151Z,-2.20
2019-01-26T00:38:04.008Z,-2.30
2019-01-26T00:40:30.712Z,-2.30
2019-01-26T00:42:57.541Z,-2.20
2019-01-26T00:45:24.115Z,-2.20
2019-01-26T00:47:50.645Z,-2.20
2019-01-26T00:50:17.324Z,-2.20
2019-01-26T00:52:44.052Z,-2.20
2019-01-26T00:55:11.093Z,-2.20
2019-01-26T00:57:38.264Z,-2.00
2019-01-26T01:00:08.889Z,-2.10
2019-01-26T01:02:35.662Z,-2.10
2019-01-26T01:05:03.484Z,-2.00
2019-01-26T01:07:30.176Z,-2.10
2019-01-26T01:09:56.719Z,-2.00
2019-01-26T01:12:23.217Z,-2.00
2019-01-26T01:14:49.825Z,-2.00
2019-01-26T01:17:16.654Z,-1.90
2019-01-26T01:19:43.305Z,-1.80
2019-01-26T01:22:11.528Z,-1.80
2019-01-26T01:24:38.181Z,-2.00
2019-01-26T01:27:04.748Z,-2.20
2019-01-26T01:29:31.358Z,-2.10
2019-01-26T01:31:58.046Z,-1.90
2019-01-26T01:34:24.569Z,-1.90
2019-01-26T01:36:51.096Z,-1.90
2019-01-26T01:39:17.655Z,-1.90
2019-01-26T01:41:44.250Z,-1.90
2019-01-26T01:44:11.069Z,-1.80
2019-01-26T01:46:42.873Z,-1.80
2019-01-26T01:49:06.095Z,-1.90
2019-01-26T01:51:34.386Z,-1.70
2019-01-26T01:54:03.134Z,-1.70
2019-01-26T01:56:29.842Z,-1.80
2019-01-26T01:58:56.562Z,-1.90
2019-01-26T02:01:23.237Z,-1.80
2019-01-26T02:03:49.974Z,-1.70
2019-01-26T02:06:16.713Z,-1.70
2019-01-26T02:08:43.400Z,-1.80
2019-01-26T02:11:10.165Z,-1.70
2019-01-26T02:13:36.824Z,-1.80
2019-01-26T02:16:03.680Z,-1.70
2019-01-26T02:18:30.447Z,-1.70
2019-01-26T02:20:57.775Z,-1.70
2019-01-26T02:23:24.503Z,-1.60
2019-01-26T02:25:51.069Z,-1.60
2019-01-26T02:28:17.753Z,-1.70
2019-01-26T02:30:45.525Z,-1.80
2019-01-26T02:33:12.184Z,-1.60
2019-01-26T02:35:38.976Z,-1.50
2019-01-26T02:38:05.581Z,-1.60
2019-01-26T02:40:32.355Z,-1.70
2019-01-26T02:42:58.865Z,-1.70
2019-01-26T02:45:25.464Z,-1.50
2019-01-26T02:47:52.093Z,-1.40
2019-01-26T02:50:18.623Z,-1.50
2019-01-26T02:52:45.288Z,-1.60
2019-01-26T02:55:12.460Z,-1.60
2019-01-26T02:57:39.080Z,-1.70
2019-01-26T03:00:09.542Z,-1.60
2019-01-26T03:02:36.665Z,-1.60
2019-01-26T03:05:06.250Z,-1.60
2019-01-26T03:07:33.225Z,-1.70
2019-01-26T03:09:59.998Z,-1.60
2019-01-26T03:12:26.788Z,-1.60
2019-01-26T03:14:53.465Z,-1.50
2019-01-26T03:17:20.168Z,-1.60
2019-01-26T03:19:46.802Z,-1.40
2019-01-26T03:22:14.023Z,-1.50
2019-01-26T03:24:40.705Z,-1.40
2019-01-26T03:27:08.121Z,-1.40
2019-01-26T03:29:34.802Z,-1.40
2019-01-26T03:32:01.534Z,-1.40
2019-01-26T03:34:28.207Z,-1.30
2019-01-26T03:36:54.897Z,-1.30
2019-01-26T03:39:21.767Z,-1.20
2019-01-26T03:41:48.488Z,-1.20
2019-01-26T03:44:15.169Z,-1.30
2019-01-26T03:46:41.780Z,-1.30
2019-01-26T03:49:08.459Z,-1.20
2019-01-26T03:51:35.069Z,-0.90
2019-01-26T03:54:01.735Z,-1.00
2019-01-26T03:56:28.456Z,-0.90
2019-01-26T03:58:55.234Z,-1.00
2019-01-26T04:01:21.873Z,-0.90
2019-01-26T04:03:48.448Z,-1.00
2019-01-26T04:06:15.077Z,-0.90
2019-01-26T04:08:41.804Z,-0.90
2019-01-26T04:11:08.469Z,-0.80
2019-01-26T04:13:35.487Z,-0.90
2019-01-26T04:16:02.379Z,-0.90
2019-01-26T04:18:30.590Z,-0.80
2019-01-26T04:20:57.358Z,-0.80
2019-01-26T04:23:24.125Z,-0.90
2019-01-26T04:25:50.748Z,-0.80
2019-01-26T04:28:17.426Z,-0.80
2019-01-26T04:30:43.948Z,-0.80
2019-01-26T04:33:10.520Z,-0.80
2019-01-26T04:35:37.150Z,-0.80
2019-01-26T04:38:03.876Z,-0.90
2019-01-26T04:40:30.432Z,-0.70
2019-01-26T04:42:57.108Z,-0.60
2019-01-26T04:45:23.826Z,-0.80
2019-01-26T04:47:50.498Z,-0.80
2019-01-26T04:50:18.532Z,-0.80
2019-01-26T04:52:45.200Z,-0.80
2019-01-26T04:55:12.426Z,-0.70
2019-01-26T04:57:39.091Z,-0.60
2019-01-26T05:00:18.946Z,-0.70
2019-01-26T05:02:45.680Z,-0.70
2019-01-26T05:05:12.251Z,-0.80
2019-01-26T05:07:38.758Z,-0.80
2019-01-26T05:10:09.035Z,-0.80
2019-01-26T05:12:35.717Z,-0.60
2019-01-26T05:15:06.951Z,-0.70
2019-01-26T05:17:39.249Z,-0.70
2019-01-26T05:20:04.324Z,-0.60
2019-01-26T05:22:30.834Z,-0.60
2019-01-26T05:24:57.493Z,-0.60
2019-01-26T05:27:24.119Z,-0.50
2019-01-26T05:29:50.768Z,-0.70
2019-01-26T05:32:18.991Z,-0.60
2019-01-26T05:34:45.532Z,-0.60
2019-01-26T05:37:12.063Z,-0.60
2019-01-26T05:39:38.698Z,-0.60
2019-01-26T05:42:05.211Z,-0.50
2019-01-26T05:44:31.761Z,-0.60
2019-01-26T05:46:58.384Z,-0.50
2019-01-26T05:49:25.063Z,-0.50
2019-01-26T05:51:51.690Z,-0.40
2019-01-26T05:54:18.320Z,-0.40
2019-01-26T05:56:44.946Z,-0.20
2019-01-26T05:59:11.598Z,-0.30
2019-01-26T06:01:38.218Z,-0.20
2019-01-26T06:04:04.848Z,-0.10
2019-01-26T06:06:31.640Z,0.00
2019-01-26T06:08:58.276Z,0.00
2019-01-26T06:11:24.940Z,0.10
2019-01-26T06:13:51.556Z,0.10
2019-01-26T06:16:18.361Z,0.10
2019-01-26T06:18:44.984Z,0.20
2019-01-26T06:21:11.713Z,0.30
2019-01-26T06:23:38.235Z,0.30
2019-01-26T06:26:04.880Z,0.30
2019-01-26T06:28:31.410Z,0.40
2019-01-26T06:30:58.096Z,0.50
2019-01-26T06:33:24.723Z,0.50
2019-01-26T06:35:51.375Z,0.60
2019-01-26T06:38:17.905Z,0.70
2019-01-26T06:40:44.453Z,0.70
2019-01-26T06:43:10.976Z,0.70
2019-01-26T06:45:37.536Z,0.70
2019-01-26T06:48:04.047Z,0.80
2019-01-26T06:50:30.688Z,0.80
2019-01-26T06:52:57.197Z,0.80
2019-01-26T06:55:23.858Z,0.80
2019-01-26T06:57:50.375Z,0.80
2019-01-26T07:00:22.318Z,0.80
2019-01-26T07:02:48.935Z,0.80
2019-01-26T07:05:18.001Z,0.90
2019-01-26T07:07:44.733Z,0.80
2019-01-26T07:10:11.583Z,0.90
2019-01-26T07:12:39.496Z,0.90
2019-01-26T07:15:08.967Z,1.00
2019-01-26T07:17:35.599Z,0.90
2019-01-26T07:20:05.647Z,1.00
2019-01-26T07:22:32.252Z,1.00
2019-01-26T07:24:58.809Z,1.00
2019-01-26T07:27:25.423Z,1.20
2019-01-26T07:29:52.056Z,1.20
2019-01-26T07:32:18.729Z,1.20
2019-01-26T07:34:45.349Z,1.40
2019-01-26T07:37:11.901Z,1.30
2019-01-26T07:39:38.426Z,1.30
2019-01-26T07:42:04.974Z,1.40
2019-01-26T07:44:31.744Z,1.40
2019-01-26T07:46:58.293Z,1.30
2019-01-26T07:49:24.853Z,1.30
2019-01-26T07:51:51.525Z,1.40
2019-01-26T07:54:19.780Z,1.50
2019-01-26T07:56:46.517Z,1.40
2019-01-26T07:59:13.236Z,1.40
2019-01-26T08:01:39.885Z,1.50
2019-01-26T08:04:06.410Z,1.50
2019-01-26T08:06:33.056Z,1.60
2019-01-26T08:08:59.583Z,1.70
2019-01-26T08:11:26.152Z,1.80
2019-01-26T08:13:52.779Z,1.80
2019-01-26T08:16:19.328Z,1.90
2019-01-26T08:18:45.852Z,1.90
2019-01-26T08:21:12.535Z,1.90
2019-01-26T08:23:39.512Z,1.90
2019-01-26T08:26:06.166Z,2.10
2019-01-26T08:28:32.813Z,2.00
2019-01-26T08:30:59.461Z,2.00
2019-01-26T08:33:25.981Z,2.10
2019-01-26T08:35:52.646Z,2.20
2019-01-26T08:38:20.886Z,2.20
2019-01-26T08:40:47.649Z,2.30
2019-01-26T08:43:14.432Z,2.10
2019-01-26T08:45:40.995Z,2.20
2019-01-26T08:48:07.523Z,2.30
2019-01-26T08:50:34.315Z,2.40
2019-01-26T08:53:01.053Z,2.40
2019-01-26T08:55:27.781Z,2.30
2019-01-26T08:57:54.433Z,2.30
2019-01-26T09:00:23.163Z,2.20
2019-01-26T09:02:52.838Z,2.30
2019-01-26T09:05:20.985Z,2.40
2019-01-26T09:07:49.517Z,2.40
2019-01-26T09:10:16.577Z,2.60
2019-01-26T09:12:43.252Z,2.60
2019-01-26T09:15:11.992Z,2.60
2019-01-26T09:17:38.953Z,2.60
2019-01-26T09:20:14.816Z,2.70
2019-01-26T09:22:41.281Z,2.60
2019-01-26T09:25:08.993Z,2.60
2019-01-26T09:27:36.227Z,2.60
2019-01-26T09:30:09.690Z,2.60
2019-01-26T09:32:38.228Z,2.70
2019-01-26T09:35:06.709Z,2.80
2019-01-26T09:37:34.320Z,2.80
2019-01-26T09:40:01.523Z,2.90
2019-01-26T09:42:28.982Z,2.80
2019-01-26T09:44:56.025Z,2.80
2019-01-26T09:47:23.244Z,2.80
2019-01-26T09:49:50.679Z,2.80
2019-01-26T09:52:17.549Z,2.80
2019-01-26T09:54:44.727Z,2.90
2019-01-26T09:57:11.659Z,2.90
2019-01-26T09:59:38.216Z,3.00
2019-01-26T10:02:05.025Z,3.10
2019-01-26T10:04:31.968Z,3.10
2019-01-26T10:06:58.891Z,3.10
2019-01-26T10:09:25.643Z,3.20
2019-01-26T10:11:52.437Z,3.20
2019-01-26T10:14:19.763Z,3.20
2019-01-26T10:16:48.158Z,3.00
2019-01-26T10:19:14.945Z,3.20
2019-01-26T10:21:42.491Z,3.30
2019-01-26T10:24:09.641Z,3.30
2019-01-26T10:26:38.540Z,3.40
2019-01-26T10:29:06.930Z,3.40
2019-01-26T10:31:34.696Z,3.40
2019-01-26T10:34:01.520Z,3.40
2019-01-26T10:36:30.286Z,3.50
2019-01-26T10:38:57.992Z,3.40
2019-01-26T10:41:27.847Z,3.50
2019-01-26T10:43:54.718Z,3.60
2019-01-26T10:46:22.450Z,3.60
2019-01-26T10:48:50.323Z,3.50
2019-01-26T10:51:17.792Z,3.50
2019-01-26T10:53:45.799Z,3.60
2019-01-26T10:56:14.844Z,3.40
2019-01-26T10:58:42.697Z,3.30
2019-01-26T11:01:10.549Z,3.50
2019-01-26T11:03:37.623Z,3.50
2019-01-26T11:06:06.162Z,3.30
2019-01-26T11:08:33.867Z,3.50
2019-01-26T11:11:01.689Z,3.50
2019-01-26T11:13:29.460Z,3.40
2019-01-26T11:15:57.266Z,3.40
2019-01-26T11:18:24.401Z,3.50
2019-01-26T11:20:52.839Z,3.50
2019-01-26T11:23:21.068Z,3.60
2019-01-26T11:25:49.296Z,3.60
2019-01-26T11:28:16.707Z,3.60
2019-01-26T11:30:44.466Z,3.70
2019-01-26T11:33:12.482Z,3.70
2019-01-26T11:35:40.709Z,3.60
2019-01-26T11:38:09.242Z,3.70
2019-01-26T11:40:37.153Z,3.70
2019-01-26T11:43:04.972Z,3.80
2019-01-26T11:45:37.521Z,3.90
2019-01-26T11:48:06.998Z,3.90
2019-01-26T11:50:36.122Z,3.90
2019-01-26T11:53:03.880Z,3.90
2019-01-26T11:55:34.306Z,3.90
2019-01-26T11:58:02.050Z,3.80
2019-01-26T12:00:46.526Z,3.90
2019-01-26T12:03:25.021Z,3.80
2019-01-26T12:05:54.792Z,3.90
2019-01-26T12:08:22.555Z,4.10
2019-01-26T12:10:50.376Z,4.00
2019-01-26T12:13:18.172Z,4.10
2019-01-26T12:15:46.005Z,4.10
2019-01-26T12:18:13.809Z,4.10
2019-01-26T12:20:42.467Z,4.10
2019-01-26T12:23:10.368Z,4.20
2019-01-26T12:25:38.179Z,4.30
2019-01-26T12:28:06.022Z,4.20
2019-01-26T12:30:33.716Z,4.10
2019-01-26T12:33:02.404Z,4.30
2019-01-26T12:35:30.212Z,4.30
2019-01-26T12:37:58.127Z,4.20
2019-01-26T12:40:25.941Z,4.20
2019-01-26T12:42:54.268Z,4.10
2019-01-26T12:45:21.990Z,4.40
2019-01-26T12:47:50.306Z,4.30
2019-01-26T12:50:18.585Z,4.40
2019-01-26T12:52:46.912Z,4.30
2019-01-26T12:55:16.265Z,4.20
2019-01-26T12:57:44.087Z,4.30
2019-01-26T13:00:17.204Z,4.10
2019-01-26T13:02:45.320Z,4.20
2019-01-26T13:05:12.751Z,4.10
2019-01-26T13:07:40.660Z,4.40
2019-01-26T13:10:14.401Z,4.30
2019-01-26T13:12:42.473Z,4.10
2019-01-26T13:15:15.232Z,4.30
2019-01-26T13:17:40.271Z,4.30
2019-01-26T13:20:13.937Z,4.00
2019-01-26T13:22:41.849Z,4.10
2019-01-26T13:25:13.112Z,4.10
2019-01-26T13:27:42.809Z,4.00
2019-01-26T13:30:13.473Z,4.10
2019-01-26T13:32:41.507Z,4.00
2019-01-26T13:35:09.321Z,4.10
2019-01-26T13:37:38.782Z,4.10
2019-01-26T13:40:10.426Z,4.10
2019-01-26T13:42:38.758Z,4.10
2019-01-26T13:45:12.074Z,4.00
2019-01-26T13:47:40.511Z,4.00
2019-01-26T13:50:08.857Z,3.90
2019-01-26T13:52:36.868Z,3.80
2019-01-26T13:55:07.772Z,3.90
2019-01-26T13:57:35.682Z,4.00
2019-01-26T14:00:09.097Z,3.90
2019-01-26T14:02:36.841Z,4.00
2019-01-26T14:05:04.976Z,3.90
2019-01-26T14:07:32.683Z,4.00
2019-01-26T14:10:00.653Z,4.00
2019-01-26T14:12:28.574Z,4.00
2019-01-26T14:14:57.639Z,4.10
2019-01-26T14:17:25.552Z,3.90
2019-01-26T14:19:53.529Z,4.10
2019-01-26T14:22:22.105Z,4.00
2019-01-26T14:24:50.122Z,4.10
2019-01-26T14:27:17.818Z,4.10
2019-01-26T14:29:45.548Z,4.00
2019-01-26T14:32:13.698Z,3.90
2019-01-26T14:34:41.723Z,3.90
2019-01-26T14:37:09.749Z,4.10
2019-01-26T14:39:37.771Z,4.00
2019-01-26T14:42:05.444Z,4.00
2019-01-26T14:44:33.346Z,4.00
2019-01-26T14:47:01.262Z,3.90
2019-01-26T14:49:29.088Z,3.90
2019-01-26T14:51:56.892Z,3.90
2019-01-26T14:54:24.706Z,3.80
2019-01-26T14:56:52.525Z,3.70
2019-01-26T14:59:20.544Z,3.70
2019-01-26T15:01:48.464Z,3.80
2019-01-26T15:04:16.234Z,3.70
2019-01-26T15:06:44.740Z,3.70
2019-01-26T15:09:12.618Z,3.80
2019-01-26T15:11:40.895Z,3.80
2019-01-26T15:14:09.424Z,3.90
2019-01-26T15:16:37.152Z,3.90
2019-01-26T15:19:04.965Z,3.90
2019-01-26T15:21:32.872Z,3.70
2019-01-26T15:24:00.749Z,3.70
2019-01-26T15:26:28.768Z,3.50
2019-01-26T15:28:56.885Z,3.50
2019-01-26T15:31:25.152Z,3.50
2019-01-26T15:33:53.491Z,3.50
2019-01-26T15:36:21.409Z,3.40
2019-01-26T15:38:49.526Z,3.40
2019-01-26T15:41:17.440Z,3.40
2019-01-26T15:43:45.495Z,3.50
2019-01-26T15:46:13.995Z,3.40
2019-01-26T15:48:42.176Z,3.50
2019-01-26T15:51:10.350Z,3.60
2019-01-26T15:53:38.468Z,3.70
2019-01-26T15:56:07.317Z,3.60
2019-01-26T15:58:36.811Z,3.50
2019-01-26T16:01:05.849Z,3.40
2019-01-26T16:03:33.652Z,3.40
2019-01-26T16:06:01.492Z,3.40
2019-01-26T16:08:29.817Z,3.40
2019-01-26T16:11:01.228Z,3.40
2019-01-26T16:13:29.086Z,3.30
2019-01-26T16:15:56.794Z,3.40
2019-01-26T16:18:25.213Z,3.50
2019-01-26T16:20:53.037Z,3.50
2019-01-26T16:23:20.866Z,3.40
2019-01-26T16:25:49.168Z,3.50
2019-01-26T16:28:18.279Z,3.40
2019-01-26T16:30:46.810Z,3.30
2019-01-26T16:33:15.120Z,3.40
2019-01-26T16:35:43.154Z,3.30
2019-01-26T16:38:11.462Z,3.40
2019-01-26T16:40:40.417Z,3.60
2019-01-26T16:43:08.849Z,3.50
2019-01-26T16:45:37.870Z,3.40
2019-01-26T16:48:07.529Z,3.40
2019-01-26T16:50:36.545Z,3.20
2019-01-26T16:53:04.865Z,3.20
2019-01-26T16:55:32.593Z,3.30
2019-01-26T16:58:00.528Z,3.40
2019-01-26T17:00:37.110Z,3.50
2019-01-26T17:03:05.201Z,3.40
2019-01-26T17:05:33.686Z,3.20
2019-01-26T17:08:01.700Z,3.30
2019-01-26T17:10:34.149Z,3.20
2019-01-26T17:12:59.890Z,3.20
2019-01-26T17:15:28.022Z,3.30
2019-01-26T17:17:55.931Z,3.20
2019-01-26T17:20:35.396Z,3.30
2019-01-26T17:23:03.137Z,3.40
2019-01-26T17:25:31.044Z,3.40
2019-01-26T17:27:58.939Z,3.40
2019-01-26T17:30:29.523Z,3.40
2019-01-26T17:32:59.102Z,3.30
2019-01-26T17:35:27.039Z,3.30
2019-01-26T17:37:56.485Z,3.40
2019-01-26T17:40:25.507Z,3.50
2019-01-26T17:42:53.788Z,3.40
2019-01-26T17:45:22.069Z,3.40
2019-01-26T17:47:50.197Z,3.40
2019-01-26T17:50:20.136Z,3.40
2019-01-26T17:52:47.920Z,3.40
2019-01-26T17:55:15.946Z,3.30
2019-01-26T17:57:44.166Z,3.30
2019-01-26T18:00:28.714Z,3.40
2019-01-26T18:02:56.798Z,3.50
2019-01-26T18:05:24.632Z,3.40
2019-01-26T18:07:52.936Z,3.10
2019-01-26T18:10:22.288Z,3.20
2019-01-26T18:12:50.525Z,3.30
2019-01-26T18:15:18.542Z,3.20
2019-01-26T18:17:46.619Z,3.20
2019-01-26T18:20:22.794Z,3.40
2019-01-26T18:22:50.804Z,3.30
2019-01-26T18:25:19.629Z,3.20
2019-01-26T18:27:47.901Z,3.20
2019-01-26T18:30:30.164Z,3.20
2019-01-26T18:32:59.197Z,3.10
2019-01-26T18:35:27.590Z,3.20
2019-01-26T18:37:55.760Z,3.30
2019-01-26T18:40:25.395Z,3.10
2019-01-26T18:42:54.076Z,3.00
2019-01-26T18:45:24.853Z,3.00
2019-01-26T18:47:52.562Z,3.10
2019-01-26T18:50:28.765Z,3.20
2019-01-26T18:52:57.291Z,3.10
2019-01-26T18:55:26.085Z,3.00
2019-01-26T18:57:54.775Z,3.10
2019-01-26T19:00:28.018Z,3.20
2019-01-26T19:02:59.041Z,3.10
2019-01-26T19:05:28.772Z,3.20
2019-01-26T19:07:57.598Z,3.00
2019-01-26T19:10:26.431Z,3.10
2019-01-26T19:12:55.495Z,3.30
2019-01-26T19:15:24.824Z,3.30
2019-01-26T19:17:53.818Z,3.30
2019-01-26T19:20:23.179Z,3.20
2019-01-26T19:22:52.060Z,3.10
2019-01-26T19:25:21.318Z,3.10
2019-01-26T19:27:50.252Z,3.30
2019-01-26T19:30:23.380Z,3.30
2019-01-26T19:32:52.021Z,3.10
2019-01-26T19:35:20.826Z,3.10
2019-01-26T19:37:50.168Z,3.10
2019-01-26T19:40:20.797Z,3.30
2019-01-26T19:42:49.785Z,3.20
2019-01-26T19:45:19.451Z,3.00
2019-01-26T19:47:48.086Z,3.10
2019-01-26T19:50:18.756Z,3.20
2019-01-26T19:52:47.617Z,3.10
2019-01-26T19:55:17.253Z,3.10
2019-01-26T19:57:45.650Z,3.10
2019-01-26T20:00:15.502Z,3.20
2019-01-26T20:02:44.558Z,3.30
2019-01-26T20:05:21.742Z,3.30
2019-01-26T20:07:50.466Z,3.20
2019-01-26T20:10:19.753Z,3.10
2019-01-26T20:12:48.656Z,3.20
2019-01-26T20:15:19.612Z,3.30
2019-01-26T20:17:48.246Z,3.30
2019-01-26T20:20:31.232Z,3.40
2019-01-26T20:22:59.894Z,3.30
2019-01-26T20:25:28.635Z,3.20
2019-01-26T20:27:57.665Z,3.40
2019-01-26T20:30:28.437Z,3.40
2019-01-26T20:32:57.293Z,3.40
2019-01-26T20:35:25.886Z,3.40
2019-01-26T20:37:54.875Z,3.50
2019-01-26T20:40:23.821Z,3.40
2019-01-26T20:42:52.740Z,3.50
2019-01-26T20:45:23.392Z,3.50
2019-01-26T20:47:52.493Z,3.50
2019-01-26T20:50:21.561Z,3.50
2019-01-26T20:52:50.430Z,3.60
2019-01-26T20:55:18.976Z,3.50
2019-01-26T20:57:48.039Z,3.50
2019-01-26T21:00:18.927Z,3.70
2019-01-26T21:02:48.046Z,3.60
2019-01-26T21:05:16.720Z,3.60
2019-01-26T21:07:45.545Z,3.60
2019-01-26T21:10:18.454Z,3.70
2019-01-26T21:12:47.895Z,3.80
2019-01-26T21:15:17.014Z,3.80
2019-01-26T21:17:45.278Z,3.70
2019-01-26T21:20:15.221Z,3.80
2019-01-26T21:22:43.570Z,3.90
2019-01-26T21:25:12.607Z,4.00
2019-01-26T21:27:41.634Z,3.90
2019-01-26T21:30:18.117Z,4.00
2019-01-26T21:32:46.217Z,4.00
2019-01-26T21:35:14.723Z,4.10
2019-01-26T21:37:43.065Z,4.20
2019-01-26T21:40:16.887Z,4.10
2019-01-26T21:42:45.248Z,4.30
2019-01-26T21:45:14.729Z,4.30
2019-01-26T21:47:44.298Z,4.40
2019-01-26T21:50:20.511Z,4.30
2019-01-26T21:52:48.838Z,4.30
2019-01-26T21:55:17.277Z,4.20
2019-01-26T21:57:45.752Z,4.30
2019-01-26T22:00:16.269Z,4.30
2019-01-26T22:02:44.152Z,4.20
2019-01-26T22:05:12.622Z,4.20
2019-01-26T22:07:41.000Z,4.30
2019-01-26T22:10:11.436Z,4.20
2019-01-26T22:12:39.404Z,4.20
2019-01-26T22:15:09.832Z,4.30
2019-01-26T22:17:37.541Z,4.30
2019-01-26T22:20:08.253Z,4.30
2019-01-26T22:22:36.348Z,4.30
2019-01-26T22:25:08.317Z,4.20
2019-01-26T22:27:36.232Z,4.30
2019-01-26T22:30:12.812Z,4.40
2019-01-26T22:32:40.595Z,4.20
2019-01-26T22:35:08.720Z,4.20
2019-01-26T22:37:36.402Z,4.30
2019-01-26T22:40:10.025Z,4.40
2019-01-26T22:42:37.813Z,4.30
2019-01-26T22:45:07.963Z,4.40
2019-01-26T22:47:35.706Z,4.30
2019-01-26T22:50:06.454Z,4.30
2019-01-26T22:52:34.150Z,4.30
2019-01-26T22:55:01.073Z,4.30
2019-01-26T22:57:27.896Z,4.30
2019-01-26T22:59:54.807Z,4.30
2019-01-26T23:02:22.495Z,4.40
2019-01-26T23:05:00.398Z,4.40
2019-01-26T23:07:29.274Z,4.40
2019-01-26T23:09:59.911Z,4.40
2019-01-26T23:12:42.703Z,4.30
2019-01-26T23:15:24.920Z,4.30
2019-01-26T23:17:58.211Z,4.30
2019-01-26T23:20:28.588Z,4.20
2019-01-26T23:23:01.964Z,4.20
2019-01-26T23:25:44.370Z,4.30
2019-01-26T23:28:33.148Z,4.30
2019-01-26T23:31:10.768Z,4.20
2019-01-26T23:33:37.641Z,4.20
2019-01-26T23:36:04.305Z,4.30
2019-01-26T23:38:30.827Z,4.40
2019-01-26T23:40:57.592Z,4.40
2019-01-26T23:43:24.212Z,4.40
2019-01-26T23:45:50.981Z,4.50
2019-01-26T23:48:17.812Z,4.50
2019-01-26T23:50:44.432Z,4.50
2019-01-26T23:53:11.148Z,4.50
2019-01-26T23:55:37.820Z,4.40
2019-01-26T23:58:04.337Z,4.40
